createdAt,value
2022-08-08T00:02:33.227Z,99914.19
2022-08-08T00:05:21.447Z,99918.91
2022-08-08T00:08:24.980Z,99912.50
2022-08-08T00:11:12.888Z,99911.69
2022-08-08T00:14:14.840Z,99903.78
2022-08-08T00:17:23.179Z,99909.03
2022-08-08T00:20:01.336Z,99904.25
2022-08-08T00:22:41.043Z,99907.22
2022-08-08T00:25:44.878Z,99904.72
2022-08-08T00:28:35.232Z,99908.59
2022-08-08T00:32:29.069Z,99906.88
2022-08-08T00:35:04.502Z,99895.78
2022-08-08T00:38:01.213Z,99901.25
2022-08-08T00:41:12.142Z,99894.03
2022-08-08T00:43:29.684Z,99898.59
2022-08-08T00:46:57.596Z,99899.66
2022-08-08T00:49:43.134Z,99898.69
2022-08-08T00:52:40.480Z,99894.59
2022-08-08T00:55:36.033Z,99896.28
2022-08-08T00:59:02.533Z,99890.53
2022-08-08T01:01:46.712Z,99891.31
2022-08-08T01:04:52.770Z,99893.59
2022-08-08T01:07:54.879Z,99891.66
2022-08-08T01:10:50.802Z,99886.88
2022-08-08T01:14:05.598Z,99891.22
2022-08-08T01:16:48.652Z,99891.53
2022-08-08T01:19:52.193Z,99903.31
2022-08-08T01:22:36.565Z,99902.03
2022-08-08T01:25:42.831Z,99894.94
2022-08-08T01:28:33.135Z,99900.09
2022-08-08T01:32:05.511Z,99909.19
2022-08-08T01:34:42.312Z,99907.22
2022-08-08T01:37:56.364Z,99911.97
2022-08-08T01:40:30.026Z,99901.69
2022-08-08T01:43:24.387Z,99909.44
2022-08-08T01:46:13.625Z,99902.69
2022-08-08T01:48:55.207Z,99907.25
2022-08-08T01:52:54.691Z,99909.38
2022-08-08T01:55:19.325Z,99908.44
2022-08-08T01:58:12.556Z,99906.22
2022-08-08T02:00:43.454Z,99919.97
2022-08-08T02:03:54.571Z,99912.22
2022-08-08T02:06:56.831Z,99919.97
2022-08-08T02:10:01.597Z,99909.03
2022-08-08T02:12:35.066Z,99911.66
2022-08-08T02:15:47.536Z,99909.25
2022-08-08T02:18:27.261Z,99906.50
2022-08-08T02:21:34.424Z,99907.81
2022-08-08T02:24:24.826Z,99909.63
2022-08-08T02:27:07.607Z,99913.34
2022-08-08T02:30:05.685Z,99912.06
2022-08-08T02:32:50.652Z,99908.84
2022-08-08T02:36:04.387Z,99907.72
2022-08-08T02:38:54.935Z,99907.50
2022-08-08T02:41:58.428Z,99904.47
2022-08-08T02:44:59.246Z,99902.25
2022-08-08T02:47:47.007Z,99901.78
2022-08-08T02:50:24.504Z,99894.84
2022-08-08T02:52:58.891Z,99899.84
2022-08-08T02:55:47.342Z,99897.78
2022-08-08T02:59:02.141Z,99896.97
2022-08-08T03:01:50.270Z,99887.84
2022-08-08T03:05:02.374Z,99902.03
2022-08-08T03:07:24.671Z,99895.28
2022-08-08T03:10:06.202Z,99898.97
2022-08-08T03:13:01.879Z,99897.69
2022-08-08T03:16:05.429Z,99894.81
2022-08-08T03:18:59.077Z,99898.41
2022-08-08T03:21:26.932Z,99900.66
2022-08-08T03:24:07.211Z,99892.78
2022-08-08T03:26:43.466Z,99894.25
2022-08-08T03:29:20.568Z,99894.91
2022-08-08T03:32:12.269Z,99904.53
2022-08-08T03:34:41.208Z,99907.72
2022-08-08T03:38:00.058Z,99907.72
2022-08-08T03:40:03.785Z,99904.53
2022-08-08T03:42:31.034Z,99903.13
2022-08-08T03:44:58.516Z,99910.66
2022-08-08T03:47:27.830Z,99905.50
2022-08-08T03:50:19.960Z,99911.31
2022-08-08T03:52:51.518Z,99910.34
2022-08-08T03:55:54.987Z,99911.84
2022-08-08T03:58:30.415Z,99911.69
2022-08-08T04:01:01.726Z,99917.16
2022-08-08T04:03:59.774Z,99914.59
2022-08-08T04:06:22.701Z,99927.91
2022-08-08T04:08:49.701Z,99919.41
2022-08-08T04:11:20.923Z,99917.16
2022-08-08T04:14:03.363Z,99919.88
2022-08-08T04:16:40.331Z,99920.03
2022-08-08T04:19:24.990Z,99929.03
2022-08-08T04:21:52.659Z,99926.63
2022-08-08T04:24:28.629Z,99923.09
2022-08-08T04:26:57.681Z,99920.69
2022-08-08T04:29:25.356Z,99931.28
2022-08-08T04:31:58.876Z,99935.50
2022-08-08T04:34:31.768Z,99929.69
2022-08-08T04:36:59.309Z,99932.88
2022-08-08T04:40:04.349Z,99925.97
2022-08-08T04:42:15.947Z,99936.44
2022-08-08T04:44:47.637Z,99926.75
2022-08-08T04:47:15.155Z,99940.94
2022-08-08T04:49:55.956Z,99940.72
2022-08-08T04:52:25.921Z,99936.53
2022-08-08T04:55:01.492Z,99953.38
2022-08-08T04:57:28.743Z,99944.28
2022-08-08T04:59:58.052Z,99939.88
2022-08-08T05:02:31.317Z,99942.13
2022-08-08T05:04:59.577Z,99944.91
2022-08-08T05:07:37.963Z,99944.25
2022-08-08T05:10:13.011Z,99951.13
2022-08-08T05:12:43.074Z,99943.59
2022-08-08T05:16:48.012Z,99950.09
2022-08-08T05:18:13.672Z,99960.03
2022-08-08T05:20:49.817Z,99964.59
2022-08-08T05:23:17.881Z,99960.31
2022-08-08T05:25:44.523Z,99957.53
2022-08-08T05:28:13.491Z,99957.47
2022-08-08T05:30:47.114Z,99965.34
2022-08-08T05:33:16.958Z,99963.34
2022-08-08T05:35:46.795Z,99963.88
2022-08-08T05:38:30.438Z,99971.88
2022-08-08T05:40:59.139Z,99969.03
2022-08-08T05:44:02.522Z,99975.16
2022-08-08T05:46:16.086Z,99976.88
2022-08-08T05:48:43.804Z,99976.97
2022-08-08T05:51:19.290Z,99983.38
2022-08-08T05:54:24.205Z,99974.00
2022-08-08T05:56:41.844Z,99978.78
2022-08-08T05:59:59.427Z,99976.47
2022-08-08T06:02:40.848Z,99975.09
2022-08-08T06:05:33.743Z,99982.84
2022-08-08T06:08:02.444Z,99991.66
2022-08-08T06:10:39.323Z,99988.41
2022-08-08T06:13:12.446Z,99992.53
2022-08-08T06:15:51.218Z,99991.16
2022-08-08T06:18:22.301Z,100009.63
2022-08-08T06:20:52.922Z,100007.06
2022-08-08T06:23:48.904Z,100005.50
2022-08-08T06:26:38.576Z,100012.00
2022-08-08T06:29:49.207Z,100018.38
2022-08-08T06:32:10.229Z,100015.41
2022-08-08T06:34:52.552Z,100018.00
2022-08-08T06:37:39.570Z,100020.81
2022-08-08T06:40:12.126Z,100026.81
2022-08-08T06:42:57.359Z,100022.91
2022-08-08T06:45:24.559Z,100016.88
2022-08-08T06:48:01.347Z,100018.47
2022-08-08T06:50:31.408Z,100017.31
2022-08-08T06:53:14.363Z,100016.13
2022-08-08T06:56:02.802Z,100013.31
2022-08-08T06:58:33.549Z,100017.53
2022-08-08T07:01:11.662Z,100011.72
2022-08-08T07:04:40.586Z,100022.47
2022-08-08T07:06:45.010Z,100017.91
2022-08-08T07:09:17.914Z,100021.78
2022-08-08T07:11:52.059Z,100025.69
2022-08-08T07:14:32.018Z,100018.94
2022-08-08T07:17:09.218Z,100033.47
2022-08-08T07:19:44.816Z,100027.25
2022-08-08T07:22:22.204Z,100024.75
2022-08-08T07:24:59.803Z,100025.47
2022-08-08T07:28:00.847Z,100020.88
2022-08-08T07:30:25.696Z,100022.69
2022-08-08T07:32:53.219Z,100026.09
2022-08-08T07:35:21.561Z,100016.91
2022-08-08T07:38:04.709Z,100019.63
2022-08-08T07:40:37.221Z,100025.50
2022-08-08T07:43:09.642Z,100017.66
2022-08-08T07:46:05.523Z,100022.03
2022-08-08T07:48:24.298Z,100028.28
2022-08-08T07:50:53.928Z,100032.75
2022-08-08T07:54:02.765Z,100031.91
2022-08-08T07:56:37.385Z,100032.22
2022-08-08T07:59:14.250Z,100028.09
2022-08-08T08:02:35.996Z,100026.97
2022-08-08T08:04:44.238Z,100026.81
2022-08-08T08:07:16.071Z,100035.38
2022-08-08T08:09:42.803Z,100027.53
2022-08-08T08:12:31.296Z,100032.41
2022-08-08T08:15:08.533Z,100028.72
2022-08-08T08:17:49.234Z,100039.00
2022-08-08T08:20:30.470Z,100036.84
2022-08-08T08:22:57.546Z,100040.75
2022-08-08T08:25:42.350Z,100033.44
2022-08-08T08:28:10.499Z,100042.09
2022-08-08T08:30:43.794Z,100027.25
2022-08-08T08:33:12.802Z,100034.66
2022-08-08T08:36:20.281Z,100039.44
2022-08-08T08:38:27.580Z,100035.28
2022-08-08T08:40:54.834Z,100037.97
2022-08-08T08:43:26.822Z,100025.47
2022-08-08T08:45:57.282Z,100037.44
2022-08-08T08:48:24.841Z,100023.06
2022-08-08T08:50:53.372Z,100024.63
2022-08-08T08:53:54.503Z,100028.16
2022-08-08T08:56:10.690Z,100020.28
2022-08-08T08:58:46.534Z,100026.44
2022-08-08T09:01:19.631Z,100033.00
2022-08-08T09:03:51.009Z,100022.19
2022-08-08T09:06:33.979Z,100022.00
2022-08-08T09:09:26.521Z,100022.56
2022-08-08T09:12:07.797Z,100026.63
2022-08-08T09:14:35.607Z,100023.72
2022-08-08T09:17:15.732Z,100027.16
2022-08-08T09:21:57.826Z,100015.41
2022-08-08T09:22:31.793Z,100014.91
2022-08-08T09:24:58.459Z,100011.00
2022-08-08T09:27:56.166Z,100010.78
2022-08-08T09:30:17.379Z,100012.09
2022-08-08T09:32:50.419Z,100011.63
2022-08-08T09:35:37.303Z,100006.09
2022-08-08T09:38:05.833Z,100008.63
2022-08-08T09:40:47.719Z,99994.88
2022-08-08T09:44:05.554Z,100005.75
2022-08-08T09:46:30.607Z,100006.25
2022-08-08T09:49:18.310Z,100000.81
2022-08-08T09:52:06.678Z,100003.63
2022-08-08T09:54:42.052Z,99997.72
2022-08-08T09:57:17.252Z,99997.22
2022-08-08T10:02:49.201Z,99996.34
2022-08-08T10:05:25.181Z,100000.72
2022-08-08T10:07:52.375Z,99995.22
2022-08-08T10:10:38.363Z,99994.88
2022-08-08T10:13:29.878Z,99991.38
2022-08-08T10:16:03.818Z,99983.59
2022-08-08T10:18:35.869Z,99976.94
2022-08-08T10:21:22.503Z,99971.84
2022-08-08T10:23:58.505Z,99970.28
2022-08-08T10:26:56.789Z,99967.59
2022-08-08T10:29:59.244Z,99961.69
2022-08-08T10:32:35.845Z,99964.88
2022-08-08T10:36:01.913Z,99958.91
2022-08-08T10:38:01.439Z,99952.56
2022-08-08T10:40:32.739Z,99943.84
2022-08-08T10:43:05.202Z,99951.81
2022-08-08T10:45:56.774Z,99939.53
2022-08-08T10:48:58.596Z,99945.09
2022-08-08T10:51:26.177Z,99948.66
2022-08-08T10:53:58.364Z,99951.41
2022-08-08T10:56:27.355Z,99941.47
2022-08-08T10:58:59.878Z,99939.47
2022-08-08T11:01:33.534Z,99943.44
2022-08-08T11:04:04.540Z,99933.50
2022-08-08T11:06:36.591Z,99939.84
2022-08-08T11:09:20.110Z,99927.91
2022-08-08T11:12:05.832Z,99932.66
2022-08-08T11:15:02.149Z,99939.00
2022-08-08T11:17:59.718Z,99929.50
2022-08-08T11:20:27.611Z,99930.28
2022-08-08T11:23:05.208Z,99926.72
2022-08-08T11:25:52.689Z,99916.72
2022-08-08T11:28:29.507Z,99927.78
2022-08-08T11:53:50.610Z,99895.84
2022-08-08T11:56:25.506Z,99909.31
2022-08-08T11:58:52.463Z,99910.84
2022-08-08T12:01:19.200Z,99909.25
2022-08-08T12:03:56.087Z,99891.06
2022-08-08T12:06:26.169Z,99894.19
2022-08-08T12:09:05.779Z,99897.28
2022-08-08T12:11:38.854Z,99894.94
2022-08-08T12:14:07.787Z,99899.31
2022-08-08T12:16:48.891Z,99883.00
2022-08-08T12:19:15.980Z,99884.16
2022-08-08T12:21:59.823Z,99895.97
2022-08-08T12:24:42.997Z,99889.91
2022-08-08T12:27:18.818Z,99881.13
2022-08-08T12:29:59.097Z,99878.78
2022-08-08T12:32:26.042Z,99891.41
2022-08-08T12:34:59.028Z,99881.75
2022-08-08T12:37:41.247Z,99883.97
2022-08-08T12:40:23.888Z,99883.22
2022-08-08T12:42:52.210Z,99876.06
2022-08-08T12:45:58.072Z,99879.22
2022-08-08T12:48:35.716Z,99872.72
2022-08-08T12:51:02.810Z,99873.53
2022-08-08T12:53:38.006Z,99872.81
2022-08-08T12:56:19.619Z,99868.88
2022-08-08T12:58:54.300Z,99863.91
2022-08-08T13:01:34.946Z,99862.75
2022-08-08T13:04:18.312Z,99865.81
2022-08-08T13:06:58.685Z,99866.50
2022-08-08T13:09:33.055Z,99869.31
2022-08-08T13:12:24.455Z,99876.00
2022-08-08T13:14:53.738Z,99864.16
2022-08-08T13:18:09.518Z,99857.91
2022-08-08T13:20:18.322Z,99856.31
2022-08-08T13:22:45.904Z,99846.91
2022-08-08T13:25:17.874Z,99850.00
2022-08-08T13:27:56.645Z,99856.13
2022-08-08T13:30:28.526Z,99850.56
2022-08-08T13:33:01.336Z,99845.84
2022-08-08T13:35:38.653Z,99846.81
2022-08-08T13:38:08.563Z,99837.13
2022-08-08T13:40:41.295Z,99832.72
2022-08-08T13:43:08.396Z,99835.41
2022-08-08T13:45:35.306Z,99839.03
2022-08-08T13:48:03.876Z,99834.72
2022-08-08T13:50:50.452Z,99833.63
2022-08-08T13:53:31.600Z,99838.50
2022-08-08T13:56:11.637Z,99827.63
2022-08-08T13:58:57.647Z,99824.28
2022-08-08T14:01:42.141Z,99823.41
2022-08-08T14:04:22.031Z,99827.44
2022-08-08T14:06:48.943Z,99815.28
2022-08-08T14:09:25.212Z,99816.31
2022-08-08T14:11:59.267Z,99819.47
2022-08-08T14:14:46.904Z,99816.16
2022-08-08T14:17:22.682Z,99810.44
2022-08-08T14:20:06.993Z,99805.28
2022-08-08T14:22:42.938Z,99804.38
2022-08-08T14:25:15.553Z,99807.63
2022-08-08T14:28:00.015Z,99808.97
2022-08-08T14:30:34.412Z,99805.69
2022-08-08T14:33:01.538Z,99798.94
2022-08-08T14:35:36.126Z,99789.56
2022-08-08T14:38:33.440Z,99792.19
2022-08-08T14:40:59.532Z,99796.63
2022-08-08T14:44:02.049Z,99795.06
2022-08-08T14:46:30.845Z,99788.56
2022-08-08T14:49:20.100Z,99793.38
2022-08-08T14:51:53.138Z,99792.41
2022-08-08T14:54:29.322Z,99792.84
2022-08-08T14:56:57.253Z,99781.47
2022-08-08T14:59:31.419Z,99788.88
2022-08-08T15:02:14.214Z,99784.47
2022-08-08T15:04:42.313Z,99786.00
2022-08-08T15:07:22.497Z,99785.66
2022-08-08T15:09:51.524Z,99786.16
2022-08-08T15:12:27.206Z,99790.50
2022-08-08T15:14:54.903Z,99783.66
2022-08-08T15:17:22.502Z,99773.19
2022-08-08T15:19:50.511Z,99776.03
2022-08-08T15:22:18.095Z,99780.78
2022-08-08T15:24:51.023Z,99777.22
2022-08-08T15:28:03.548Z,99778.97
2022-08-08T15:30:06.121Z,99777.50
2022-08-08T15:32:39.091Z,99773.28
2022-08-08T15:35:07.312Z,99784.34
2022-08-08T15:37:34.201Z,99775.16
2022-08-08T15:40:01.082Z,99783.94
2022-08-08T15:42:32.493Z,99777.00
2022-08-08T15:45:00.917Z,99779.34
2022-08-08T15:47:27.987Z,99783.56
2022-08-08T15:49:58.072Z,99784.72
2022-08-08T15:52:25.009Z,99783.47
2022-08-08T15:54:53.698Z,99784.47
2022-08-08T15:57:21.868Z,99790.13
2022-08-08T16:00:05.341Z,99781.38
2022-08-08T16:02:36.406Z,99779.34
2022-08-08T16:05:04.195Z,99776.72
2022-08-08T16:07:52.136Z,99773.09
2022-08-08T16:13:03.739Z,99772.56
2022-08-08T16:13:29.409Z,99763.44
2022-08-08T16:15:57.725Z,99764.00
2022-08-08T16:18:27.804Z,99751.47
2022-08-08T16:21:00.239Z,99764.53
2022-08-08T16:23:32.190Z,99770.06
2022-08-08T16:26:04.811Z,99770.38
2022-08-08T16:28:43.987Z,99767.53
2022-08-08T16:31:12.323Z,99772.88
2022-08-08T16:33:40.357Z,99766.56
2022-08-08T16:36:15.564Z,99766.84
2022-08-08T16:38:47.603Z,99762.94
2022-08-08T16:41:22.533Z,99763.47
2022-08-08T16:43:51.324Z,99763.16
2022-08-08T16:46:38.899Z,99757.47
2022-08-08T16:49:08.738Z,99757.47
2022-08-08T16:55:01.398Z,99759.97
2022-08-08T16:55:22.898Z,99765.66
2022-08-08T16:57:23.253Z,99768.34
2022-08-08T17:00:06.191Z,99765.06
2022-08-08T17:02:39.181Z,99765.94
2022-08-08T17:05:08.524Z,99761.84
2022-08-08T17:07:37.898Z,99765.50
2022-08-08T17:10:08.548Z,99762.81
2022-08-08T17:12:36.802Z,99749.75
2022-08-08T17:15:17.411Z,99752.75
2022-08-08T17:18:02.291Z,99749.50
2022-08-08T17:20:31.440Z,99765.41
2022-08-08T17:23:18.449Z,99767.00
2022-08-08T17:25:52.090Z,99775.38
2022-08-08T17:28:34.618Z,99774.50
2022-08-08T17:31:39.130Z,99775.91
2022-08-08T17:34:53.341Z,99780.19
2022-08-08T17:36:55.044Z,99783.91
2022-08-08T17:40:04.101Z,99793.97
2022-08-08T17:42:13.384Z,99798.25
2022-08-08T17:44:44.455Z,99790.50
2022-08-08T17:47:24.385Z,99799.47
2022-08-08T17:50:01.476Z,99806.00
2022-08-08T17:52:30.057Z,99808.56
2022-08-08T17:54:57.375Z,99807.53
2022-08-08T17:57:24.725Z,99809.66
2022-08-08T17:59:58.818Z,99808.97
2022-08-08T18:02:29.313Z,99813.44
2022-08-08T18:04:58.574Z,99815.50
2022-08-08T18:08:04.011Z,99822.31
2022-08-08T18:10:15.323Z,99825.53
2022-08-08T18:12:44.350Z,99827.16
2022-08-08T18:15:12.903Z,99826.03
2022-08-08T18:18:05.450Z,99822.09
2022-08-08T18:20:37.164Z,99826.09
2022-08-08T18:23:14.636Z,99838.09
2022-08-08T18:25:42.914Z,99840.13
2022-08-08T18:28:13.022Z,99832.59
2022-08-08T18:30:43.996Z,99849.31
2022-08-08T18:33:36.817Z,99836.59
2022-08-08T18:36:03.238Z,99838.22
2022-08-08T18:38:32.190Z,99844.63
2022-08-08T18:41:00.991Z,99844.66
2022-08-08T18:43:37.977Z,99836.72
2022-08-08T18:46:56.302Z,99845.44
2022-08-08T18:48:57.940Z,99846.22
2022-08-08T18:51:48.345Z,99849.44
2022-08-08T18:54:21.891Z,99851.78
2022-08-08T18:56:50.102Z,99861.31
2022-08-08T18:59:17.244Z,99863.72
2022-08-08T19:02:25.117Z,99856.94
2022-08-08T19:04:31.243Z,99862.06
2022-08-08T19:06:57.868Z,99878.31
2022-08-08T19:09:49.071Z,99879.47
2022-08-08T19:12:13.421Z,99878.66
2022-08-08T19:14:40.302Z,99893.69
2022-08-08T19:17:10.807Z,99900.38
2022-08-08T19:19:37.812Z,99906.66
2022-08-08T19:22:11.135Z,99904.63
2022-08-08T19:24:43.223Z,99909.28
2022-08-08T19:27:56.408Z,99920.28
2022-08-08T19:30:24.201Z,99921.75
2022-08-08T19:32:51.456Z,99927.19
2022-08-08T19:35:20.089Z,99927.13
2022-08-08T19:37:57.631Z,99925.44
2022-08-08T19:40:31.141Z,99928.47
2022-08-08T19:42:59.431Z,99931.56
2022-08-08T19:45:59.253Z,99933.47
2022-08-08T19:48:31.029Z,99939.31
2022-08-08T19:51:00.822Z,99954.22
2022-08-08T19:53:53.830Z,99949.44
2022-08-08T19:56:16.523Z,99958.03
2022-08-08T19:59:01.672Z,99958.31
2022-08-08T20:01:50.263Z,99955.84
2022-08-08T20:04:16.280Z,99957.31
2022-08-08T20:06:43.787Z,99964.31
2022-08-08T20:09:15.925Z,99974.09
2022-08-08T20:11:49.682Z,99974.81
2022-08-08T20:14:34.053Z,99984.59
2022-08-08T20:17:02.746Z,99980.16
2022-08-08T20:19:34.574Z,99988.78
2022-08-08T20:22:13.289Z,99983.94
2022-08-08T20:24:48.006Z,99987.78
2022-08-08T20:27:20.178Z,99983.78
2022-08-08T20:29:56.010Z,99988.81
2022-08-08T20:32:28.550Z,99990.31
2022-08-08T20:35:01.177Z,99996.13
2022-08-08T20:37:47.071Z,99992.09
2022-08-08T20:40:17.155Z,100003.00
2022-08-08T20:42:54.765Z,100004.47
2022-08-08T20:45:23.373Z,100010.75
2022-08-08T20:48:09.463Z,100000.72
2022-08-08T20:50:36.481Z,100007.72
2022-08-08T20:53:06.831Z,100012.75
2022-08-08T20:55:45.336Z,100013.44
2022-08-08T20:58:23.141Z,100012.59
2022-08-08T21:00:50.760Z,100021.97
2022-08-08T21:03:17.472Z,100026.19
2022-08-08T21:05:59.123Z,100014.63
2022-08-08T21:08:37.137Z,100016.88
2022-08-08T21:11:13.427Z,100013.59
2022-08-08T21:13:41.294Z,100015.06
2022-08-08T21:16:18.214Z,100023.66
2022-08-08T21:18:57.170Z,100015.66
2022-08-08T21:21:39.858Z,100020.28
2022-08-08T21:24:22.277Z,100013.47
2022-08-08T21:26:53.853Z,100028.72
2022-08-08T21:29:21.634Z,100032.22
2022-08-08T21:31:58.503Z,100034.09
2022-08-08T21:34:29.904Z,100040.69
2022-08-08T21:36:58.311Z,100032.34
2022-08-08T21:39:41.548Z,100033.06
2022-08-08T21:42:11.867Z,100033.66
2022-08-08T21:44:38.596Z,100024.09
2022-08-08T21:48:06.684Z,100038.94
2022-08-08T21:50:11.837Z,100036.47
2022-08-08T21:54:31.446Z,100034.00
2022-08-08T21:56:27.015Z,100044.16
2022-08-08T21:58:13.790Z,100042.81
2022-08-08T22:00:41.109Z,100043.53
2022-08-08T22:03:07.857Z,100041.06
2022-08-08T22:05:41.572Z,100055.53
2022-08-08T22:08:08.747Z,100055.81
2022-08-08T22:10:35.685Z,100052.97
2022-08-08T22:13:17.554Z,100055.63
2022-08-08T22:15:59.721Z,100058.22
2022-08-08T22:18:32.608Z,100062.13
2022-08-08T22:21:10.610Z,100063.56
2022-08-08T22:23:50.403Z,100061.50
2022-08-08T22:26:29.928Z,100057.03
2022-08-08T22:29:13.060Z,100053.41
2022-08-08T22:32:02.348Z,100056.88
2022-08-08T22:34:31.966Z,100061.84
2022-08-08T22:36:59.577Z,100051.88
2022-08-08T22:39:39.374Z,100055.69
2022-08-08T22:42:14.517Z,100060.31
2022-08-08T22:44:54.455Z,100059.41
2022-08-08T22:47:21.118Z,100058.16
2022-08-08T22:49:54.154Z,100064.03
2022-08-08T22:52:33.546Z,100056.81
2022-08-08T22:55:04.895Z,100061.09
2022-08-08T22:57:44.382Z,100056.63
2022-08-08T23:00:16.649Z,100059.72
2022-08-08T23:02:49.927Z,100060.44
2022-08-08T23:05:17.111Z,100056.47
2022-08-08T23:07:51.908Z,100058.28
2022-08-08T23:10:25.520Z,100057.06
2022-08-08T23:12:54.396Z,100062.09
2022-08-08T23:16:41.109Z,100062.81
2022-08-08T23:18:11.823Z,100059.16
2022-08-08T23:20:39.951Z,100066.13
2022-08-08T23:23:06.478Z,100073.13
2022-08-08T23:25:33.486Z,100069.13
2022-08-08T23:28:12.087Z,100072.94
2022-08-08T23:30:38.652Z,100069.72
2022-08-08T23:33:19.273Z,100075.13
2022-08-08T23:36:07.489Z,100075.00
2022-08-08T23:38:34.787Z,100074.56
2022-08-08T23:41:02.422Z,100074.22
2022-08-08T23:43:45.926Z,100074.09
2022-08-08T23:49:02.364Z,100070.91
2022-08-08T23:49:14.918Z,100068.41
2022-08-08T23:52:04.923Z,100071.84
2022-08-08T23:54:43.053Z,100068.66
2022-08-08T23:57:27.174Z,100066.59
